createdAt,value
2019-03-17T00:01:22.214Z,1.00
2019-03-17T00:04:31.410Z,1.00
2019-03-17T00:07:26.686Z,0.90
2019-03-17T00:10:28.891Z,0.87
2019-03-17T00:13:31.142Z,0.90
2019-03-17T00:16:33.351Z,1.00
2019-03-17T00:19:35.587Z,0.83
2019-03-17T00:22:37.838Z,1.10
2019-03-17T00:25:40.131Z,0.70
2019-03-17T00:28:44.432Z,0.77
2019-03-17T00:31:44.620Z,0.93
2019-03-17T00:34:46.841Z,1.10
2019-03-17T00:37:49.056Z,0.90
2019-03-17T00:40:51.254Z,0.93
2019-03-17T00:43:53.477Z,1.03
2019-03-17T00:46:55.687Z,0.90
2019-03-17T00:49:57.904Z,0.90
2019-03-17T00:53:00.130Z,0.80
2019-03-17T00:56:02.412Z,0.70
2019-03-17T00:59:04.671Z,0.87
2019-03-17T01:02:06.941Z,0.80
2019-03-17T01:05:09.202Z,0.90
2019-03-17T01:08:11.456Z,0.90
2019-03-17T01:11:13.682Z,0.90
2019-03-17T01:14:15.927Z,0.67
2019-03-17T01:17:18.178Z,0.87
2019-03-17T01:20:20.441Z,0.97
2019-03-17T01:23:22.660Z,0.70
2019-03-17T01:26:24.879Z,1.33
2019-03-17T01:29:27.071Z,1.20
2019-03-17T01:32:29.349Z,1.20
2019-03-17T01:35:32.651Z,1.00
2019-03-17T01:38:33.823Z,1.03
2019-03-17T01:41:36.095Z,1.00
2019-03-17T01:44:38.393Z,0.80
2019-03-17T01:47:40.649Z,1.00
2019-03-17T01:50:42.975Z,0.93
2019-03-17T01:53:45.203Z,1.47
2019-03-17T01:56:47.406Z,1.43
2019-03-17T01:59:49.608Z,1.50
2019-03-17T02:02:51.846Z,1.40
2019-03-17T02:05:54.098Z,1.33
2019-03-17T02:08:56.327Z,1.37
2019-03-17T02:11:58.563Z,1.10
2019-03-17T02:15:00.798Z,1.20
2019-03-17T02:18:03.107Z,1.13
2019-03-17T02:21:05.337Z,1.17
2019-03-17T02:24:07.567Z,1.40
2019-03-17T02:27:09.785Z,1.37
2019-03-17T02:30:12.059Z,1.30
2019-03-17T02:33:14.270Z,1.43
2019-03-17T02:36:16.512Z,1.00
2019-03-17T02:39:18.741Z,1.20
2019-03-17T02:42:21.008Z,1.00
2019-03-17T02:45:23.282Z,1.20
2019-03-17T02:48:25.511Z,0.97
2019-03-17T02:51:27.776Z,1.10
2019-03-17T02:54:29.993Z,1.00
2019-03-17T02:57:32.250Z,1.20
2019-03-17T03:00:34.537Z,1.10
2019-03-17T03:03:36.801Z,1.00
2019-03-17T03:06:39.041Z,2.23
2019-03-17T03:09:41.297Z,0.93
2019-03-17T03:12:43.490Z,0.90
2019-03-17T03:15:45.733Z,1.00
2019-03-17T03:18:48.015Z,0.90
2019-03-17T03:21:50.257Z,0.90
2019-03-17T03:24:52.497Z,0.73
2019-03-17T03:27:54.765Z,0.80
2019-03-17T03:30:57.095Z,0.90
2019-03-17T03:33:59.224Z,0.70
2019-03-17T03:37:01.451Z,0.70
2019-03-17T03:40:03.897Z,0.80
2019-03-17T03:43:06.136Z,0.70
2019-03-17T03:46:08.445Z,1.10
2019-03-17T03:49:10.684Z,0.90
2019-03-17T03:52:12.883Z,1.10
2019-03-17T03:55:15.129Z,0.90
2019-03-17T03:58:17.410Z,0.90
2019-03-17T04:01:19.645Z,0.97
2019-03-17T04:04:21.892Z,1.10
2019-03-17T04:07:24.173Z,0.90
2019-03-17T04:10:26.386Z,1.00
2019-03-17T04:13:28.628Z,1.00
2019-03-17T04:16:30.863Z,0.80
2019-03-17T04:19:33.134Z,0.90
2019-03-17T04:22:35.374Z,0.90
2019-03-17T04:25:37.604Z,0.70
2019-03-17T04:28:39.785Z,0.90
2019-03-17T04:31:42.107Z,0.90
2019-03-17T04:34:44.340Z,1.00
2019-03-17T04:37:46.582Z,1.33
2019-03-17T04:40:48.795Z,1.10
2019-03-17T04:43:51.075Z,1.40
2019-03-17T04:46:53.291Z,1.10
2019-03-17T04:49:55.496Z,1.10
2019-03-17T04:52:57.708Z,0.97
2019-03-17T04:55:59.920Z,0.90
2019-03-17T04:59:02.133Z,1.00
2019-03-17T05:02:04.319Z,0.93
2019-03-17T05:05:06.613Z,1.17
2019-03-17T05:08:08.803Z,0.93
2019-03-17T05:11:11.038Z,1.00
2019-03-17T05:14:13.263Z,0.90
2019-03-17T05:17:15.505Z,1.10
2019-03-17T05:20:17.727Z,1.00
2019-03-17T05:23:19.926Z,0.90
2019-03-17T05:26:22.148Z,0.93
2019-03-17T05:29:24.355Z,0.80
2019-03-17T05:32:26.575Z,1.00
2019-03-17T05:35:28.860Z,1.00
2019-03-17T05:38:31.097Z,0.80
2019-03-17T05:41:33.343Z,0.70
2019-03-17T05:44:35.531Z,0.70
2019-03-17T05:47:37.781Z,0.80
2019-03-17T05:50:40.007Z,0.70
2019-03-17T05:53:42.252Z,0.70
2019-03-17T05:56:44.460Z,1.03
2019-03-17T05:59:46.675Z,0.80
2019-03-17T06:02:48.893Z,0.80
2019-03-17T06:05:51.130Z,0.70
2019-03-17T06:08:53.376Z,0.87
2019-03-17T06:11:56.301Z,1.10
2019-03-17T06:14:58.531Z,0.90
2019-03-17T06:18:00.740Z,0.97
2019-03-17T06:21:03.003Z,0.80
2019-03-17T06:24:05.259Z,0.80
2019-03-17T06:27:07.510Z,0.90
2019-03-17T06:30:09.791Z,0.80
2019-03-17T06:33:12.048Z,0.70
2019-03-17T06:36:14.281Z,0.60
2019-03-17T06:39:16.558Z,0.90
2019-03-17T06:42:18.796Z,0.80
2019-03-17T06:45:21.037Z,0.70
2019-03-17T06:48:23.283Z,0.70
2019-03-17T06:51:25.527Z,0.70
2019-03-17T06:54:27.927Z,0.80
2019-03-17T06:57:30.157Z,0.70
2019-03-17T07:00:32.375Z,0.57
2019-03-17T07:03:34.613Z,0.80
2019-03-17T07:06:36.822Z,0.80
2019-03-17T07:09:39.104Z,0.63
2019-03-17T07:12:41.363Z,0.80
2019-03-17T07:15:43.597Z,0.90
2019-03-17T07:18:45.919Z,0.90
2019-03-17T07:21:48.117Z,0.90
2019-03-17T07:24:50.320Z,0.73
2019-03-17T07:27:52.545Z,0.90
2019-03-17T07:30:54.784Z,0.60
2019-03-17T07:33:56.983Z,0.70
2019-03-17T07:36:59.203Z,0.80
2019-03-17T07:40:01.460Z,0.70
2019-03-17T07:43:03.700Z,0.80
2019-03-17T07:46:05.915Z,0.80
2019-03-17T07:49:08.217Z,0.83
2019-03-17T07:52:10.428Z,0.80
2019-03-17T07:55:12.718Z,0.90
2019-03-17T07:58:14.891Z,0.70
2019-03-17T08:01:17.155Z,1.00
2019-03-17T08:04:19.416Z,0.70
2019-03-17T08:07:21.755Z,0.80
2019-03-17T08:10:23.994Z,0.83
2019-03-17T08:13:26.200Z,0.90
2019-03-17T08:16:28.467Z,0.80
2019-03-17T08:19:30.720Z,0.80
2019-03-17T08:22:32.915Z,1.00
2019-03-17T08:25:35.135Z,0.80
2019-03-17T08:28:37.331Z,0.90
2019-03-17T08:31:39.572Z,0.73
2019-03-17T08:34:41.800Z,0.80
2019-03-17T08:37:44.016Z,0.80
2019-03-17T08:40:46.272Z,1.00
2019-03-17T08:43:54.257Z,1.03
2019-03-17T08:46:50.720Z,1.10
2019-03-17T08:49:52.913Z,1.00
2019-03-17T08:52:55.188Z,1.00
2019-03-17T08:55:57.421Z,1.17
2019-03-17T08:58:59.644Z,0.93
2019-03-17T09:02:01.887Z,0.90
2019-03-17T09:05:04.313Z,0.87
2019-03-17T09:08:06.626Z,0.90
2019-03-17T09:11:08.868Z,0.93
2019-03-17T09:14:11.096Z,1.00
2019-03-17T09:17:14.664Z,1.20
2019-03-17T09:20:15.585Z,1.00
2019-03-17T09:23:17.791Z,1.10
2019-03-17T09:26:20.028Z,0.90
2019-03-17T09:29:22.256Z,0.90
2019-03-17T09:32:24.480Z,0.73
2019-03-17T09:35:26.751Z,1.00
2019-03-17T09:38:28.977Z,0.80
2019-03-17T09:41:31.206Z,1.00
2019-03-17T09:44:33.434Z,0.80
2019-03-17T09:47:35.680Z,0.80
2019-03-17T09:50:37.930Z,0.90
2019-03-17T09:53:40.167Z,0.90
2019-03-17T09:56:42.409Z,0.80
2019-03-17T09:59:44.621Z,1.00
2019-03-17T10:02:46.853Z,0.90
2019-03-17T10:05:49.616Z,1.17
2019-03-17T10:08:59.904Z,0.93
2019-03-17T10:11:53.619Z,0.70
2019-03-17T10:14:55.835Z,1.10
2019-03-17T10:17:58.108Z,1.00
2019-03-17T10:21:00.296Z,0.97
2019-03-17T10:24:02.545Z,0.90
2019-03-17T10:27:04.764Z,0.80
2019-03-17T10:30:08.420Z,0.90
2019-03-17T10:33:10.672Z,0.60
2019-03-17T10:36:12.899Z,1.00
2019-03-17T10:39:15.131Z,0.90
2019-03-17T10:42:17.390Z,0.70
2019-03-17T10:45:19.615Z,0.80
2019-03-17T10:48:21.862Z,0.80
2019-03-17T10:51:24.132Z,0.90
2019-03-17T10:54:26.369Z,0.80
2019-03-17T10:57:28.615Z,0.80
2019-03-17T11:00:30.863Z,1.00
2019-03-17T11:03:33.066Z,0.80
2019-03-17T11:06:35.266Z,0.80
2019-03-17T11:09:37.507Z,1.20
2019-03-17T11:12:39.717Z,0.90
2019-03-17T11:15:41.931Z,0.90
2019-03-17T11:18:44.169Z,0.90
2019-03-17T11:21:46.367Z,0.80
2019-03-17T11:24:48.575Z,0.80
2019-03-17T11:27:50.788Z,0.93
2019-03-17T11:30:56.872Z,0.90
2019-03-17T11:33:59.044Z,0.90
2019-03-17T11:37:01.263Z,0.90
2019-03-17T11:40:04.379Z,1.00
2019-03-17T11:43:06.587Z,1.10
2019-03-17T11:46:08.787Z,1.00
2019-03-17T11:49:11.100Z,1.00
2019-03-17T11:52:13.437Z,1.00
2019-03-17T11:55:15.740Z,0.90
2019-03-17T11:58:18.045Z,1.00
2019-03-17T12:01:20.383Z,1.20
2019-03-17T12:04:22.719Z,1.03
2019-03-17T12:07:24.941Z,1.00
2019-03-17T12:10:27.250Z,1.10
2019-03-17T12:13:29.541Z,1.30
2019-03-17T12:16:32.052Z,1.00
2019-03-17T12:19:34.438Z,1.27
2019-03-17T12:22:36.812Z,1.00
2019-03-17T12:25:39.163Z,1.03
2019-03-17T12:28:41.489Z,1.30
2019-03-17T12:31:43.910Z,1.20
2019-03-17T12:34:48.339Z,1.17
2019-03-17T12:37:50.776Z,1.50
2019-03-17T12:40:53.019Z,1.23
2019-03-17T12:43:55.247Z,1.30
2019-03-17T12:46:57.507Z,1.20
2019-03-17T12:49:59.868Z,1.10
2019-03-17T12:53:02.091Z,1.20
2019-03-17T12:56:04.420Z,1.27
2019-03-17T12:59:06.800Z,1.10
2019-03-17T13:02:09.228Z,1.37
2019-03-17T13:05:11.641Z,1.30
2019-03-17T13:08:13.976Z,1.47
2019-03-17T13:11:16.392Z,1.50
2019-03-17T13:14:18.855Z,1.50
2019-03-17T13:17:21.124Z,1.40
2019-03-17T13:20:23.421Z,1.40
2019-03-17T13:23:27.208Z,1.33
2019-03-17T13:26:31.567Z,1.30
2019-03-17T13:29:34.079Z,1.40
2019-03-17T13:32:36.539Z,1.50
2019-03-17T13:35:38.959Z,1.70
2019-03-17T13:38:41.216Z,1.40
2019-03-17T13:41:43.472Z,1.17
2019-03-17T13:44:47.099Z,1.33
2019-03-17T13:47:49.662Z,1.40
2019-03-17T13:50:51.950Z,1.47
2019-03-17T13:53:54.183Z,1.50
2019-03-17T13:56:56.431Z,1.50
2019-03-17T13:59:58.841Z,1.60
2019-03-17T14:03:01.216Z,1.70
2019-03-17T14:06:03.520Z,1.70
2019-03-17T14:09:06.262Z,1.67
2019-03-17T14:12:08.670Z,1.67
2019-03-17T14:15:11.870Z,1.93
2019-03-17T14:18:14.185Z,1.67
2019-03-17T14:21:16.585Z,1.90
2019-03-17T14:24:18.915Z,1.70
2019-03-17T14:27:21.231Z,1.93
2019-03-17T14:30:23.716Z,1.77
2019-03-17T14:33:26.072Z,1.73
2019-03-17T14:36:28.416Z,1.70
2019-03-17T14:39:30.800Z,1.73
2019-03-17T14:42:33.163Z,1.90
2019-03-17T14:45:35.493Z,1.83
2019-03-17T14:48:37.807Z,1.43
2019-03-17T14:51:39.999Z,1.93
2019-03-17T14:54:42.427Z,2.00
2019-03-17T14:57:44.839Z,1.90
2019-03-17T15:00:47.091Z,1.95
2019-03-17T15:03:49.378Z,1.80
2019-03-17T15:06:51.774Z,2.20
2019-03-17T15:09:54.127Z,2.00
2019-03-17T15:12:56.649Z,2.20
2019-03-17T15:16:02.962Z,2.30
2019-03-17T15:19:01.476Z,1.80
2019-03-17T15:22:03.839Z,1.90
2019-03-17T15:25:06.934Z,1.80
2019-03-17T15:28:09.251Z,1.80
2019-03-17T15:31:12.596Z,2.13
2019-03-17T15:34:13.828Z,1.60
2019-03-17T15:37:16.275Z,2.10
2019-03-17T15:40:18.616Z,1.97
2019-03-17T15:43:20.836Z,1.93
2019-03-17T15:46:23.112Z,2.53
2019-03-17T15:49:25.488Z,1.87
2019-03-17T15:52:27.851Z,2.43
2019-03-17T15:55:30.066Z,2.20
2019-03-17T15:58:32.462Z,1.73
2019-03-17T16:01:34.809Z,1.83
2019-03-17T16:04:37.043Z,1.80
2019-03-17T16:07:42.424Z,2.00
2019-03-17T16:10:41.694Z,1.87
2019-03-17T16:13:44.015Z,2.10
2019-03-17T16:16:46.263Z,2.00
2019-03-17T16:19:48.547Z,2.10
2019-03-17T16:22:50.961Z,2.23
2019-03-17T16:25:54.721Z,2.00
2019-03-17T16:28:57.116Z,2.10
2019-03-17T16:31:59.356Z,1.80
2019-03-17T16:35:01.806Z,2.00
2019-03-17T16:38:04.222Z,2.20
2019-03-17T16:41:06.507Z,2.30
2019-03-17T16:44:08.833Z,2.13
2019-03-17T16:47:11.067Z,2.20
2019-03-17T16:50:14.172Z,2.00
2019-03-17T16:53:16.555Z,2.23
2019-03-17T16:56:19.031Z,1.90
2019-03-17T16:59:21.449Z,2.07
2019-03-17T17:02:23.931Z,1.80
2019-03-17T17:05:26.438Z,1.53
2019-03-17T17:08:28.708Z,1.27
2019-03-17T17:11:31.040Z,1.17
2019-03-17T17:14:33.443Z,0.40
2019-03-17T17:17:35.825Z,0.47
2019-03-17T17:20:38.456Z,0.50
2019-03-17T17:23:40.666Z,0.50
2019-03-17T17:26:43.783Z,0.50
2019-03-17T17:29:46.661Z,0.40
2019-03-17T17:32:49.039Z,0.57
2019-03-17T17:35:51.267Z,0.43
2019-03-17T17:38:53.550Z,0.40
2019-03-17T17:42:08.004Z,0.50
2019-03-17T17:44:58.202Z,0.40
2019-03-17T17:48:01.080Z,0.40
2019-03-17T17:51:03.453Z,0.40
2019-03-17T17:54:05.719Z,0.90
2019-03-17T17:57:08.014Z,0.90
2019-03-17T18:00:12.306Z,0.70
2019-03-17T18:03:14.689Z,0.50
2019-03-17T18:06:16.921Z,0.57
2019-03-17T18:09:19.214Z,0.60
2019-03-17T18:12:21.568Z,0.70
2019-03-17T18:15:24.151Z,0.60
2019-03-17T18:18:26.136Z,0.60
2019-03-17T18:24:56.604Z,0.50
2019-03-17T18:27:58.966Z,0.50
2019-03-17T18:34:50.582Z,0.50
2019-03-17T18:37:51.728Z,0.60
2019-03-17T18:40:54.127Z,0.70
2019-03-17T18:43:56.501Z,0.70
2019-03-17T18:51:03.768Z,0.87
2019-03-17T18:54:06.145Z,0.60
2019-03-17T18:57:08.469Z,0.63
2019-03-17T19:00:13.596Z,0.70
2019-03-17T19:03:15.967Z,0.77
2019-03-17T19:06:18.275Z,1.00
2019-03-17T19:09:20.501Z,0.77
2019-03-17T19:12:22.788Z,0.70
2019-03-17T19:15:25.147Z,0.80
2019-03-17T19:18:27.454Z,1.10
2019-03-17T19:21:29.656Z,0.90
2019-03-17T19:24:31.912Z,0.90
2019-03-17T19:27:34.171Z,0.90
2019-03-17T19:30:36.504Z,0.90
2019-03-17T19:33:38.848Z,1.00
2019-03-17T19:36:41.245Z,1.20
2019-03-17T19:39:43.545Z,1.63
2019-03-17T19:42:57.409Z,1.10
2019-03-17T19:45:48.063Z,1.00
2019-03-17T19:48:50.447Z,1.13
2019-03-17T19:51:52.748Z,1.10
2019-03-17T19:54:55.035Z,1.10
2019-03-17T19:57:57.687Z,1.10
2019-03-17T20:00:59.973Z,1.10
2019-03-17T20:04:02.440Z,1.20
2019-03-17T20:07:04.860Z,1.07
2019-03-17T20:10:09.543Z,1.10
2019-03-17T20:13:12.307Z,1.00
2019-03-17T20:16:14.269Z,0.97
2019-03-17T20:19:17.489Z,1.10
2019-03-17T20:22:20.449Z,0.70
2019-03-17T20:25:22.699Z,0.90
2019-03-17T20:28:25.719Z,0.80
2019-03-17T20:31:28.295Z,1.10
2019-03-17T20:34:30.675Z,0.87
2019-03-17T20:37:32.900Z,0.90
2019-03-17T20:40:35.277Z,0.90
2019-03-17T20:43:38.539Z,0.83
2019-03-17T20:46:41.404Z,0.83
2019-03-17T20:49:43.644Z,0.90
2019-03-17T20:52:45.894Z,1.00
2019-03-17T20:55:48.180Z,0.90
2019-03-17T20:58:50.371Z,0.80
2019-03-17T21:01:52.635Z,0.97
2019-03-17T21:04:54.845Z,0.90
2019-03-17T21:07:57.679Z,0.70
2019-03-17T21:10:59.907Z,1.13
2019-03-17T21:14:02.187Z,1.00
2019-03-17T21:17:04.440Z,1.27
2019-03-17T21:20:09.339Z,1.00
2019-03-17T21:23:11.535Z,1.03
2019-03-17T21:26:13.762Z,0.90
2019-03-17T21:29:15.980Z,0.90
2019-03-17T21:32:18.228Z,1.10
2019-03-17T21:35:20.463Z,0.90
2019-03-17T21:38:22.707Z,0.90
2019-03-17T21:41:24.923Z,0.80
2019-03-17T21:44:27.155Z,0.77
2019-03-17T21:47:29.349Z,0.90
2019-03-17T21:50:31.659Z,0.80
2019-03-17T21:53:33.885Z,0.80
2019-03-17T21:56:36.118Z,0.93
2019-03-17T21:59:38.371Z,1.03
2019-03-17T22:02:40.600Z,0.80
2019-03-17T22:05:42.841Z,0.97
2019-03-17T22:08:45.065Z,0.90
2019-03-17T22:11:47.256Z,0.90
2019-03-17T22:14:49.480Z,0.63
2019-03-17T22:17:51.772Z,0.60
2019-03-17T22:20:53.909Z,0.70
2019-03-17T22:23:56.132Z,0.60
2019-03-17T22:26:58.331Z,0.70
2019-03-17T22:30:00.539Z,0.70
2019-03-17T22:33:02.827Z,0.70
2019-03-17T22:36:05.061Z,0.57
2019-03-17T22:39:07.272Z,0.70
2019-03-17T22:42:09.665Z,0.70
2019-03-17T22:45:12.002Z,0.67
2019-03-17T22:48:14.147Z,0.70
2019-03-17T22:51:16.331Z,0.70
2019-03-17T22:54:18.566Z,0.70
2019-03-17T22:57:20.796Z,0.60
2019-03-17T23:00:27.764Z,0.60
2019-03-17T23:03:29.945Z,0.60
2019-03-17T23:06:32.144Z,0.63
2019-03-17T23:09:34.418Z,0.70
2019-03-17T23:12:36.639Z,0.50
2019-03-17T23:15:38.820Z,0.50
2019-03-17T23:18:41.012Z,0.50
2019-03-17T23:21:43.260Z,0.50
2019-03-17T23:24:45.483Z,0.70
2019-03-17T23:27:47.688Z,0.37
2019-03-17T23:30:49.914Z,0.43
2019-03-17T23:33:52.113Z,0.50
2019-03-17T23:36:54.318Z,0.33
2019-03-17T23:39:56.589Z,0.30
2019-03-17T23:42:58.824Z,0.30
2019-03-17T23:46:01.077Z,0.30
2019-03-17T23:49:03.320Z,0.37
2019-03-17T23:52:05.511Z,0.40
2019-03-17T23:55:08.244Z,0.40
2019-03-17T23:58:10.472Z,0.40
